createdAt,value
2022-11-07T00:03:13.720Z,11.20
2022-11-07T00:08:15.895Z,11.20
2022-11-07T00:13:17.708Z,11.20
2022-11-07T00:18:19.496Z,11.20
2022-11-07T00:23:21.252Z,11.20
2022-11-07T00:28:22.964Z,11.20
2022-11-07T00:33:24.983Z,11.20
2022-11-07T00:38:27.203Z,11.20
2022-11-07T00:43:29.488Z,11.20
2022-11-07T00:48:32.032Z,11.20
2022-11-07T00:53:33.873Z,11.10
2022-11-07T00:58:36.052Z,11.30
2022-11-07T01:03:56.792Z,11.30
2022-11-07T01:08:59.062Z,11.20
2022-11-07T01:14:02.634Z,11.30
2022-11-07T01:19:05.643Z,11.30
2022-11-07T01:24:09.536Z,11.30
2022-11-07T01:29:11.252Z,11.30
2022-11-07T01:34:13.025Z,11.30
2022-11-07T01:39:14.887Z,11.40
2022-11-07T01:44:16.587Z,11.40
2022-11-07T01:49:26.017Z,11.50
2022-11-07T01:54:35.804Z,11.40
2022-11-07T01:59:38.513Z,11.50
2022-11-07T02:04:40.498Z,11.60
2022-11-07T02:09:43.111Z,11.50
2022-11-07T02:14:45.333Z,11.50
2022-11-07T02:19:52.797Z,11.50
2022-11-07T02:24:58.257Z,11.40
2022-11-07T02:30:24.682Z,11.50
2022-11-07T02:35:35.308Z,11.50
2022-11-07T02:40:37.938Z,11.50
2022-11-07T02:45:44.099Z,11.40
2022-11-07T02:50:45.942Z,11.50
2022-11-07T02:55:47.664Z,11.50
2022-11-07T03:00:49.386Z,11.50
2022-11-07T03:05:51.080Z,11.50
2022-11-07T03:10:52.838Z,11.40
2022-11-07T03:15:54.645Z,11.50
2022-11-07T03:20:56.397Z,11.50
2022-11-07T03:25:58.170Z,11.50
2022-11-07T03:31:01.904Z,11.60
2022-11-07T03:36:03.882Z,11.50
2022-11-07T03:41:05.737Z,11.60
2022-11-07T03:46:07.447Z,11.50
2022-11-07T03:51:10.376Z,11.50
2022-11-07T03:56:13.547Z,11.40
2022-11-07T04:01:15.484Z,11.50
2022-11-07T04:06:17.290Z,11.50
2022-11-07T04:11:37.796Z,11.50
2022-11-07T04:16:58.343Z,11.60
2022-11-07T04:22:00.232Z,11.60
2022-11-07T04:27:20.383Z,11.70
2022-11-07T04:32:25.633Z,11.70
2022-11-07T04:37:27.491Z,11.70
2022-11-07T04:42:29.223Z,11.70
2022-11-07T04:47:31.074Z,11.70
2022-11-07T04:52:32.864Z,11.80
2022-11-07T04:57:34.652Z,11.80
2022-11-07T05:02:36.394Z,11.80
2022-11-07T05:07:38.802Z,11.80
2022-11-07T05:12:40.510Z,11.90
2022-11-07T05:17:42.573Z,11.90
2022-11-07T05:23:02.918Z,11.90
2022-11-07T05:28:05.564Z,11.80
2022-11-07T05:33:08.455Z,11.90
2022-11-07T05:38:10.522Z,11.90
2022-11-07T05:43:14.761Z,11.90
2022-11-07T05:48:17.271Z,11.80
2022-11-07T05:53:21.669Z,11.90
2022-11-07T05:58:23.986Z,11.80
2022-11-07T06:03:26.341Z,11.80
2022-11-07T06:08:28.145Z,11.80
2022-11-07T06:13:29.880Z,11.80
2022-11-07T06:18:31.854Z,11.80
2022-11-07T06:23:34.028Z,11.90
2022-11-07T06:28:36.534Z,11.90
2022-11-07T06:33:38.315Z,11.90
2022-11-07T06:38:40.529Z,11.90
2022-11-07T06:43:42.577Z,11.90
2022-11-07T06:48:44.372Z,11.90
2022-11-07T06:53:46.224Z,11.90
2022-11-07T06:58:47.977Z,11.90
2022-11-07T07:03:49.693Z,11.90
2022-11-07T07:08:51.725Z,11.90
2022-11-07T07:13:59.628Z,11.90
2022-11-07T07:19:04.089Z,12.00
2022-11-07T07:24:06.726Z,12.00
2022-11-07T07:29:08.484Z,12.00
2022-11-07T07:34:10.279Z,12.10
2022-11-07T07:39:12.019Z,12.00
2022-11-07T07:44:13.779Z,12.10
2022-11-07T07:49:15.693Z,12.10
2022-11-07T07:54:17.413Z,12.20
2022-11-07T07:59:19.382Z,12.20
2022-11-07T08:04:21.111Z,12.20
2022-11-07T08:09:22.971Z,12.30
2022-11-07T08:14:24.697Z,12.40
2022-11-07T08:19:26.948Z,12.40
2022-11-07T08:24:28.948Z,12.40
2022-11-07T08:29:30.861Z,12.50
2022-11-07T08:34:32.604Z,12.60
2022-11-07T08:39:34.360Z,12.70
2022-11-07T08:44:36.912Z,12.80
2022-11-07T08:49:38.650Z,12.90
2022-11-07T08:54:40.383Z,13.00
2022-11-07T08:59:44.706Z,13.10
2022-11-07T09:04:46.629Z,13.00
2022-11-07T09:09:48.587Z,13.10
2022-11-07T09:14:50.519Z,13.20
2022-11-07T09:19:52.521Z,13.20
2022-11-07T09:24:54.355Z,13.20
2022-11-07T09:29:56.114Z,13.30
2022-11-07T09:35:03.435Z,13.40
2022-11-07T09:40:20.160Z,13.40
2022-11-07T09:45:21.981Z,13.50
2022-11-07T09:50:26.888Z,13.60
2022-11-07T09:55:38.059Z,13.60
2022-11-07T10:00:40.531Z,13.80
2022-11-07T10:06:21.581Z,13.80
2022-11-07T10:11:34.517Z,13.90
2022-11-07T10:16:47.786Z,14.00
2022-11-07T10:22:11.358Z,14.10
2022-11-07T10:27:13.571Z,14.20
2022-11-07T10:32:22.634Z,14.10
2022-11-07T10:37:24.899Z,14.10
2022-11-07T10:42:30.864Z,14.40
2022-11-07T10:47:32.677Z,14.40
2022-11-07T10:52:34.521Z,14.50
2022-11-07T10:57:36.600Z,14.70
2022-11-07T11:02:49.540Z,14.80
2022-11-07T11:07:51.993Z,15.00
2022-11-07T11:12:54.078Z,14.90
2022-11-07T11:18:05.745Z,14.90
2022-11-07T11:23:21.077Z,14.90
2022-11-07T11:28:28.648Z,14.90
2022-11-07T11:33:43.543Z,14.90
2022-11-07T11:38:54.772Z,15.00
2022-11-07T11:44:37.773Z,14.90
2022-11-07T11:49:45.218Z,14.90
2022-11-07T11:54:48.537Z,14.70
2022-11-07T12:00:12.120Z,14.70
2022-11-07T12:05:38.950Z,14.70
2022-11-07T12:11:04.952Z,14.70
2022-11-07T12:16:48.851Z,14.70
2022-11-07T12:22:24.025Z,14.60
2022-11-07T12:27:41.159Z,14.70
2022-11-07T12:32:42.827Z,14.80
2022-11-07T12:38:25.344Z,15.00
2022-11-07T12:43:58.365Z,15.00
2022-11-07T12:49:29.597Z,15.00
2022-11-07T12:54:47.137Z,15.10
2022-11-07T12:59:55.733Z,15.20
2022-11-07T13:05:29.515Z,15.20
2022-11-07T13:10:46.289Z,15.30
2022-11-07T13:16:14.130Z,15.50
2022-11-07T13:21:10.149Z,15.60
2022-11-07T13:26:44.510Z,15.60
2022-11-07T13:31:40.621Z,15.60
2022-11-07T13:36:44.347Z,15.60
2022-11-07T13:41:48.305Z,15.70
2022-11-07T13:46:53.821Z,15.70
2022-11-07T13:52:02.711Z,15.90
2022-11-07T13:57:20.671Z,16.10
2022-11-07T14:02:25.691Z,15.80
2022-11-07T14:07:36.749Z,15.60
2022-11-07T14:12:40.042Z,15.50
2022-11-07T14:17:41.946Z,15.50
2022-11-07T14:22:56.090Z,15.50
2022-11-07T14:27:58.914Z,15.40
2022-11-07T14:33:02.244Z,15.30
2022-11-07T14:38:12.417Z,15.20
2022-11-07T14:43:18.466Z,15.20
2022-11-07T14:48:24.641Z,15.20
2022-11-07T14:53:34.392Z,15.10
2022-11-07T14:58:36.509Z,15.10
2022-11-07T15:03:51.837Z,15.20
2022-11-07T15:09:05.268Z,15.20
2022-11-07T15:14:25.246Z,15.20
2022-11-07T15:19:27.126Z,15.20
2022-11-07T15:24:47.266Z,15.10
2022-11-07T15:29:57.204Z,15.20
2022-11-07T15:35:42.532Z,15.20
2022-11-07T15:40:21.841Z,15.10
2022-11-07T15:45:24.544Z,15.10
2022-11-07T15:50:26.281Z,15.00
2022-11-07T15:55:28.085Z,15.00
2022-11-07T16:00:29.841Z,15.00
2022-11-07T16:05:31.791Z,15.00
2022-11-07T16:10:33.596Z,15.00
2022-11-07T16:15:36.845Z,15.00
2022-11-07T16:20:38.656Z,15.00
2022-11-07T16:25:42.789Z,15.00
2022-11-07T16:30:44.660Z,14.90
2022-11-07T16:35:52.248Z,14.90
2022-11-07T16:40:54.189Z,14.90
2022-11-07T16:45:57.082Z,14.90
2022-11-07T16:50:59.078Z,14.80
2022-11-07T16:56:02.982Z,14.80
2022-11-07T17:01:06.484Z,14.80
2022-11-07T17:06:21.989Z,14.70
2022-11-07T17:11:23.779Z,14.70
2022-11-07T17:16:29.931Z,14.60
2022-11-07T17:21:36.827Z,14.70
2022-11-07T17:26:38.939Z,14.60
2022-11-07T17:31:41.982Z,14.50
2022-11-07T17:36:48.460Z,14.50
2022-11-07T17:41:51.214Z,14.50
2022-11-07T17:46:53.058Z,14.50
2022-11-07T17:51:56.402Z,14.50
2022-11-07T17:56:58.314Z,14.60
2022-11-07T18:02:00.184Z,14.50
2022-11-07T18:07:02.018Z,14.60
2022-11-07T18:12:05.265Z,14.60
2022-11-07T18:17:07.186Z,14.60
2022-11-07T18:22:09.030Z,14.50
2022-11-07T18:27:10.969Z,14.40
2022-11-07T18:32:12.969Z,14.40
2022-11-07T18:37:14.862Z,14.40
2022-11-07T18:42:16.724Z,14.30
2022-11-07T18:47:18.612Z,14.40
2022-11-07T18:52:20.478Z,14.20
2022-11-07T18:57:22.256Z,14.20
2022-11-07T19:02:24.202Z,14.00
2022-11-07T19:07:28.513Z,14.00
2022-11-07T19:12:31.040Z,14.00
2022-11-07T19:17:32.996Z,13.90
2022-11-07T19:22:36.336Z,13.90
2022-11-07T19:27:38.161Z,13.80
2022-11-07T19:32:40.067Z,13.80
2022-11-07T19:37:42.113Z,13.70
2022-11-07T19:42:43.917Z,13.70
2022-11-07T19:47:46.248Z,13.60
2022-11-07T19:52:49.319Z,13.70
2022-11-07T19:57:51.343Z,13.70
2022-11-07T20:02:54.192Z,13.70
2022-11-07T20:08:00.719Z,13.70
2022-11-07T20:13:06.804Z,13.60
2022-11-07T20:18:08.524Z,13.60
2022-11-07T20:23:10.506Z,13.50
2022-11-07T20:28:12.246Z,13.60
2022-11-07T20:33:14.243Z,13.50
2022-11-07T20:38:16.172Z,13.40
2022-11-07T20:43:18.169Z,13.40
2022-11-07T20:48:20.285Z,13.30
2022-11-07T20:53:22.273Z,13.30
2022-11-07T20:58:24.061Z,13.20
2022-11-07T21:03:26.035Z,13.20
2022-11-07T21:08:30.694Z,13.10
2022-11-07T21:13:36.259Z,13.10
2022-11-07T21:18:38.103Z,13.10
2022-11-07T21:23:40.179Z,13.10
2022-11-07T21:28:42.098Z,13.10
2022-11-07T21:33:44.088Z,13.00
2022-11-07T21:38:46.802Z,12.90
2022-11-07T21:43:48.991Z,13.00
2022-11-07T21:48:51.142Z,12.90
2022-11-07T21:53:53.373Z,12.90
2022-11-07T21:58:58.344Z,12.90
2022-11-07T22:04:07.915Z,12.90
2022-11-07T22:09:14.247Z,12.80
2022-11-07T22:14:21.929Z,12.70
2022-11-07T22:19:23.705Z,12.80
2022-11-07T22:24:27.359Z,12.80
2022-11-07T22:29:29.078Z,12.70
2022-11-07T22:34:31.099Z,12.60
2022-11-07T22:39:32.825Z,12.70
2022-11-07T22:44:34.539Z,12.70
2022-11-07T22:49:36.229Z,12.60
2022-11-07T22:54:38.070Z,12.60
2022-11-07T22:59:39.791Z,12.60
2022-11-07T23:04:41.719Z,12.60
2022-11-07T23:09:43.603Z,12.50
2022-11-07T23:14:46.568Z,12.50
2022-11-07T23:19:54.237Z,12.40
2022-11-07T23:24:56.019Z,12.40
2022-11-07T23:29:57.780Z,12.40
2022-11-07T23:34:59.514Z,12.30
2022-11-07T23:40:01.231Z,12.20
2022-11-07T23:45:21.763Z,12.20
2022-11-07T23:50:42.085Z,12.20
2022-11-07T23:55:43.817Z,12.20
